Time;durP1;ratioP1;P1;durP2;ratioP2;P2;SDS_P1;SDS_P2;PMS_P1;PMS_P2;Temp;Humidity;BMP_temperature;BMP_pressure;BME280_temperature;BME280_humidity;BME280_pressure;Samples;Min_cycle;Max_cycle;Signal;HPM_P1;HPM_P2
2023/07/09 00:01:40;;;;;;;8.32;4.20;;;;;;;;;;5146043;27;20078;-66
2023/07/09 00:04:09;;;;;;;6.10;3.83;;;;;;;;;;5137564;27;20059;-66
2023/07/09 00:06:36;;;;;;;7.45;4.55;;;;;;;;;;5143216;27;20116;-66
2023/07/09 00:09:04;;;;;;;9.75;4.65;;;;;;;;;;5147487;27;20074;-66
2023/07/09 00:11:31;;;;;;;7.60;4.75;;;;;;;;;;5148414;27;20047;-66
2023/07/09 00:14:00;;;;;;;7.57;4.68;;;;;;;;;;5146013;27;20508;-66
2023/07/09 00:16:27;;;;;;;6.10;4.40;;;;;;;;;;5128507;27;20066;-66
2023/07/09 00:18:54;;;;;;;6.60;4.45;;;;;;;;;;5141852;27;20087;-66
2023/07/09 00:21:23;;;;;;;9.20;4.88;;;;;;;;;;5147598;27;20046;-66
2023/07/09 00:23:50;;;;;;;6.65;4.60;;;;;;;;;;5145753;27;20046;-66
2023/07/09 00:26:22;;;;;;;6.55;4.50;;;;;;;;;;5141294;27;20050;-66
2023/07/09 00:28:50;;;;;;;6.68;4.10;;;;;;;;;;5139935;27;20047;-67
2023/07/09 00:31:19;;;;;;;6.45;4.28;;;;;;;;;;5142346;27;20054;-66
2023/07/09 00:33:47;;;;;;;8.55;4.30;;;;;;;;;;5138246;27;20370;-66
2023/07/09 00:36:16;;;;;;;7.47;4.55;;;;;;;;;;5143729;27;20439;-66
2023/07/09 00:38:47;;;;;;;8.25;4.63;;;;;;;;;;5138969;27;20455;-66
2023/07/09 00:41:18;;;;;;;9.75;5.18;;;;;;;;;;5143201;27;20106;-66
2023/07/09 00:43:46;;;;;;;7.90;5.30;;;;;;;;;;5148784;27;20401;-66
2023/07/09 00:46:34;;;;;;;7.78;4.55;;;;;;;;;;5147361;27;20042;-66
2023/07/09 00:49:05;;;;;;;9.18;5.22;;;;;;;;;;5145417;27;20055;-66
2023/07/09 00:51:33;;;;;;;6.70;4.35;;;;;;;;;;5147415;27;20074;-66
2023/07/09 00:54:07;;;;;;;7.63;4.72;;;;;;;;;;5141982;27;20051;-66
2023/07/09 00:56:37;;;;;;;8.90;5.13;;;;;;;;;;5129190;27;20051;-67
2023/07/09 00:59:06;;;;;;;6.15;3.97;;;;;;;;;;5142256;27;20053;-66
2023/07/09 01:01:35;;;;;;;7.35;4.88;;;;;;;;;;5141466;27;20054;-67
2023/07/09 01:04:04;;;;;;;8.00;5.00;;;;;;;;;;5143273;27;20053;-66
2023/07/09 01:06:34;;;;;;;10.05;5.10;;;;;;;;;;5145851;27;20061;-66
2023/07/09 01:09:02;;;;;;;7.75;4.75;;;;;;;;;;5146848;27;20107;-66
2023/07/09 01:11:30;;;;;;;10.35;4.75;;;;;;;;;;5145094;27;20121;-66
2023/07/09 01:13:58;;;;;;;6.30;4.68;;;;;;;;;;5145648;27;20042;-67
2023/07/09 01:16:26;;;;;;;11.68;4.63;;;;;;;;;;5141226;27;20043;-66
2023/07/09 01:18:54;;;;;;;7.93;4.78;;;;;;;;;;5142063;27;20820;-66
2023/07/09 01:21:22;;;;;;;7.95;4.40;;;;;;;;;;5147434;27;20489;-66
2023/07/09 01:23:52;;;;;;;7.38;4.88;;;;;;;;;;5139866;27;20047;-66
2023/07/09 01:26:21;;;;;;;8.82;4.63;;;;;;;;;;5146210;27;20091;-66
2023/07/09 01:28:50;;;;;;;8.02;4.35;;;;;;;;;;5136857;27;20461;-67
2023/07/09 01:31:17;;;;;;;7.63;4.55;;;;;;;;;;5138862;27;20042;-66
2023/07/09 01:33:44;;;;;;;6.18;4.45;;;;;;;;;;5147808;27;20529;-67
2023/07/09 01:36:13;;;;;;;8.02;4.60;;;;;;;;;;5144069;27;20050;-66
2023/07/09 01:38:42;;;;;;;6.50;4.65;;;;;;;;;;5140545;27;20408;-66
2023/07/09 01:41:13;;;;;;;9.77;5.03;;;;;;;;;;5143966;27;20050;-67
2023/07/09 01:43:42;;;;;;;8.35;4.63;;;;;;;;;;5136093;27;20430;-66
2023/07/09 01:46:09;;;;;;;7.28;4.97;;;;;;;;;;5138436;27;20083;-66
2023/07/09 01:48:40;;;;;;;8.65;5.00;;;;;;;;;;5146074;27;20054;-66
2023/07/09 01:51:08;;;;;;;6.45;4.65;;;;;;;;;;5142811;27;20047;-66
2023/07/09 01:53:36;;;;;;;8.55;4.93;;;;;;;;;;5141263;27;20043;-66
2023/07/09 01:56:07;;;;;;;7.63;4.90;;;;;;;;;;5141237;27;20472;-66
2023/07/09 01:58:34;;;;;;;8.05;5.03;;;;;;;;;;5139749;27;20043;-66
2023/07/09 02:01:02;;;;;;;11.18;4.82;;;;;;;;;;5140716;27;20063;-67
2023/07/09 02:03:29;;;;;;;8.52;4.95;;;;;;;;;;5134722;27;20042;-66
2023/07/09 02:05:59;;;;;;;7.93;4.60;;;;;;;;;;5131857;27;20058;-66
2023/07/09 02:08:27;;;;;;;7.03;4.80;;;;;;;;;;5145105;27;20154;-66
2023/07/09 02:10:54;;;;;;;7.93;4.88;;;;;;;;;;5147657;27;21158;-67
2023/07/09 02:13:22;;;;;;;7.32;4.35;;;;;;;;;;5147207;27;20054;-66
2023/07/09 02:15:50;;;;;;;8.02;5.10;;;;;;;;;;5140210;27;20039;-66
2023/07/09 02:18:17;;;;;;;8.13;4.65;;;;;;;;;;5144779;27;20378;-66
2023/07/09 02:20:47;;;;;;;10.07;4.93;;;;;;;;;;5140776;27;20047;-66
2023/07/09 02:23:14;;;;;;;7.82;4.78;;;;;;;;;;5145232;27;20117;-66
2023/07/09 02:25:41;;;;;;;9.32;5.07;;;;;;;;;;5145894;27;20050;-66
2023/07/09 02:28:09;;;;;;;6.53;4.30;;;;;;;;;;5149351;27;20050;-67
2023/07/09 02:30:37;;;;;;;7.88;4.85;;;;;;;;;;5144870;27;20050;-66
2023/07/09 02:33:04;;;;;;;8.27;4.72;;;;;;;;;;5122961;27;20065;-66
2023/07/09 02:35:32;;;;;;;9.63;5.47;;;;;;;;;;5146856;27;20051;-67
2023/07/09 02:37:59;;;;;;;7.95;4.88;;;;;;;;;;5138575;27;20146;-66
2023/07/09 02:40:26;;;;;;;9.32;5.50;;;;;;;;;;5142488;27;20455;-67
2023/07/09 02:42:53;;;;;;;8.07;5.38;;;;;;;;;;5144877;27;20584;-67
2023/07/09 02:45:21;;;;;;;8.43;5.35;;;;;;;;;;5149375;27;20046;-66
2023/07/09 02:47:49;;;;;;;7.90;5.55;;;;;;;;;;5126539;27;20046;-66
2023/07/09 02:50:16;;;;;;;8.18;5.45;;;;;;;;;;5143999;27;20159;-66
2023/07/09 02:52:44;;;;;;;8.93;5.18;;;;;;;;;;5150855;27;20046;-66
2023/07/09 02:55:11;;;;;;;8.85;5.20;;;;;;;;;;5123717;27;20053;-66
2023/07/09 02:57:39;;;;;;;9.52;6.15;;;;;;;;;;5146671;27;20047;-66
2023/07/09 03:00:07;;;;;;;8.60;5.30;;;;;;;;;;5147199;27;20473;-66
2023/07/09 03:02:35;;;;;;;16.73;8.57;;;;;;;;;;5147399;27;20050;-66
2023/07/09 03:05:03;;;;;;;20.85;10.38;;;;;;;;;;5144602;27;20111;-66
2023/07/09 03:07:31;;;;;;;16.67;9.13;;;;;;;;;;5135829;27;20043;-66
2023/07/09 03:09:58;;;;;;;14.02;7.22;;;;;;;;;;5143470;27;20043;-66
2023/07/09 03:12:25;;;;;;;9.50;6.47;;;;;;;;;;5143356;27;20058;-67
2023/07/09 03:14:52;;;;;;;9.77;6.65;;;;;;;;;;5125458;27;20381;-66
2023/07/09 03:17:20;;;;;;;12.35;6.85;;;;;;;;;;5128295;27;20043;-66
2023/07/09 03:19:47;;;;;;;9.45;6.25;;;;;;;;;;5145556;27;20396;-66
2023/07/09 03:22:16;;;;;;;9.40;6.28;;;;;;;;;;5138728;27;20039;-66
2023/07/09 03:24:43;;;;;;;10.25;5.32;;;;;;;;;;5138795;27;20499;-66
2023/07/09 03:27:10;;;;;;;7.95;5.72;;;;;;;;;;5141005;27;20050;-67
2023/07/09 03:29:38;;;;;;;10.43;5.20;;;;;;;;;;5133395;27;20340;-66
2023/07/09 03:32:05;;;;;;;9.27;5.10;;;;;;;;;;5128604;27;20057;-66
2023/07/09 03:34:33;;;;;;;7.85;5.82;;;;;;;;;;5147701;27;20066;-66
2023/07/09 03:37:00;;;;;;;7.95;5.43;;;;;;;;;;5142858;27;20035;-66
2023/07/09 03:39:28;;;;;;;10.05;5.63;;;;;;;;;;5146559;27;20058;-66
2023/07/09 03:41:56;;;;;;;12.40;5.53;;;;;;;;;;5121747;27;20051;-66
2023/07/09 03:44:23;;;;;;;9.38;5.45;;;;;;;;;;5138618;27;20046;-66
2023/07/09 03:46:50;;;;;;;7.45;4.72;;;;;;;;;;5142225;27;20066;-66
2023/07/09 03:49:17;;;;;;;9.57;5.30;;;;;;;;;;5144461;27;20057;-66
2023/07/09 03:51:45;;;;;;;7.45;5.35;;;;;;;;;;5141966;27;20057;-66
2023/07/09 03:54:12;;;;;;;9.13;5.53;;;;;;;;;;5144904;27;20367;-66
2023/07/09 03:56:40;;;;;;;7.50;5.10;;;;;;;;;;5144341;27;20070;-67
2023/07/09 03:59:08;;;;;;;9.50;5.97;;;;;;;;;;5142741;27;20099;-66
2023/07/09 04:01:35;;;;;;;9.35;5.35;;;;;;;;;;5149585;27;20481;-66
2023/07/09 04:04:02;;;;;;;8.32;4.78;;;;;;;;;;5120914;27;20051;-67
2023/07/09 04:06:30;;;;;;;8.18;5.15;;;;;;;;;;5145629;27;20540;-66
2023/07/09 04:08:57;;;;;;;12.25;5.32;;;;;;;;;;5137698;27;20050;-66
2023/07/09 04:11:24;;;;;;;9.35;5.15;;;;;;;;;;5146527;27;20066;-67
2023/07/09 04:13:53;;;;;;;8.15;5.07;;;;;;;;;;5143548;27;20046;-66
2023/07/09 04:16:20;;;;;;;7.85;5.43;;;;;;;;;;5146198;27;20133;-66
2023/07/09 04:18:47;;;;;;;7.97;5.88;;;;;;;;;;5144621;27;20054;-66
2023/07/09 04:21:15;;;;;;;8.43;5.03;;;;;;;;;;5146794;27;20098;-68
2023/07/09 04:23:42;;;;;;;6.78;4.75;;;;;;;;;;5139815;27;20442;-67
2023/07/09 04:26:10;;;;;;;8.10;5.55;;;;;;;;;;5140506;27;20043;-66
2023/07/09 04:28:37;;;;;;;7.40;5.03;;;;;;;;;;5144264;27;20099;-67
2023/07/09 04:31:06;;;;;;;8.02;5.18;;;;;;;;;;5142532;27;20167;-67
2023/07/09 04:33:35;;;;;;;8.30;5.25;;;;;;;;;;5141972;27;20636;-66
2023/07/09 04:36:06;;;;;;;8.25;5.35;;;;;;;;;;5124711;27;20050;-67
2023/07/09 04:38:34;;;;;;;8.15;5.25;;;;;;;;;;5141337;27;20046;-67
2023/07/09 04:41:01;;;;;;;8.70;5.78;;;;;;;;;;5140399;27;20047;-66
2023/07/09 04:43:28;;;;;;;8.30;4.82;;;;;;;;;;5140908;27;20051;-67
2023/07/09 04:45:55;;;;;;;9.80;5.50;;;;;;;;;;5148562;27;20396;-67
2023/07/09 04:48:24;;;;;;;7.28;4.65;;;;;;;;;;5142490;27;20524;-66
2023/07/09 04:50:52;;;;;;;8.75;5.18;;;;;;;;;;5143472;27;20058;-67
2023/07/09 04:53:19;;;;;;;9.40;5.28;;;;;;;;;;5144146;27;20053;-66
2023/07/09 04:55:46;;;;;;;7.50;5.35;;;;;;;;;;5126652;27;20055;-66
2023/07/09 04:58:13;;;;;;;8.77;5.05;;;;;;;;;;5140116;27;20051;-66
2023/07/09 05:00:41;;;;;;;9.95;6.05;;;;;;;;;;5146070;27;20042;-67
2023/07/09 05:03:08;;;;;;;10.85;5.63;;;;;;;;;;5148005;27;20083;-67
2023/07/09 05:05:37;;;;;;;7.45;5.35;;;;;;;;;;5145173;27;21456;-66
2023/07/09 05:08:04;;;;;;;9.40;5.43;;;;;;;;;;5147326;27;20050;-67
2023/07/09 05:10:31;;;;;;;10.27;5.63;;;;;;;;;;5145119;27;20058;-66
2023/07/09 05:12:58;;;;;;;10.73;5.60;;;;;;;;;;5147396;27;20493;-67
2023/07/09 05:15:26;;;;;;;8.30;5.60;;;;;;;;;;5132821;27;20153;-67
2023/07/09 05:17:53;;;;;;;9.55;5.95;;;;;;;;;;5145966;27;20041;-66
2023/07/09 05:20:21;;;;;;;9.55;6.20;;;;;;;;;;5138899;27;20169;-66
2023/07/09 05:22:49;;;;;;;8.35;5.45;;;;;;;;;;5145500;27;20078;-66
2023/07/09 05:25:17;;;;;;;9.45;5.70;;;;;;;;;;5140208;27;20047;-66
2023/07/09 05:27:44;;;;;;;7.50;5.35;;;;;;;;;;5143357;27;20050;-66
2023/07/09 05:30:12;;;;;;;10.25;5.80;;;;;;;;;;5139032;27;20544;-66
2023/07/09 05:32:39;;;;;;;8.63;5.47;;;;;;;;;;5141599;27;20047;-66
2023/07/09 05:35:07;;;;;;;9.38;5.75;;;;;;;;;;5142177;27;20051;-67
2023/07/09 05:37:34;;;;;;;8.68;5.47;;;;;;;;;;5123400;27;20062;-66
2023/07/09 05:40:04;;;;;;;8.27;5.30;;;;;;;;;;5149492;27;20043;-66
2023/07/09 05:42:31;;;;;;;12.32;6.38;;;;;;;;;;5144775;27;20487;-67
2023/07/09 05:44:58;;;;;;;8.13;5.40;;;;;;;;;;5144478;27;20095;-66
2023/07/09 05:47:26;;;;;;;7.60;5.18;;;;;;;;;;5149281;27;20043;-66
2023/07/09 05:49:53;;;;;;;7.72;5.45;;;;;;;;;;5145462;27;20047;-66
2023/07/09 05:52:21;;;;;;;9.23;5.07;;;;;;;;;;5149289;27;20401;-67
2023/07/09 05:54:50;;;;;;;8.80;5.47;;;;;;;;;;5147733;27;20050;-66
2023/07/09 05:57:19;;;;;;;8.27;5.43;;;;;;;;;;5139313;27;20047;-66
2023/07/09 05:59:46;;;;;;;8.70;5.63;;;;;;;;;;5152699;27;20046;-66
2023/07/09 06:02:14;;;;;;;9.18;5.72;;;;;;;;;;5148853;27;20047;-66
2023/07/09 06:04:41;;;;;;;7.25;5.25;;;;;;;;;;5146532;27;20050;-66
2023/07/09 06:07:09;;;;;;;7.35;4.88;;;;;;;;;;5147739;27;20473;-67
2023/07/09 06:09:37;;;;;;;8.00;5.45;;;;;;;;;;5143726;27;20051;-67
2023/07/09 06:12:05;;;;;;;8.63;5.38;;;;;;;;;;5136757;27;20054;-67
2023/07/09 06:14:34;;;;;;;10.48;5.65;;;;;;;;;;5145876;27;20055;-66
2023/07/09 06:17:01;;;;;;;8.93;5.43;;;;;;;;;;5144751;27;20063;-67
2023/07/09 06:19:28;;;;;;;8.80;5.85;;;;;;;;;;5134275;27;20043;-67
2023/07/09 06:21:56;;;;;;;8.85;5.90;;;;;;;;;;5143762;27;20059;-67
2023/07/09 06:24:23;;;;;;;10.68;5.72;;;;;;;;;;5132910;27;20042;-67
2023/07/09 06:26:51;;;;;;;9.07;5.80;;;;;;;;;;5139610;27;20154;-67
2023/07/09 06:29:18;;;;;;;8.40;5.70;;;;;;;;;;5148205;27;20047;-67
2023/07/09 06:31:46;;;;;;;10.75;6.47;;;;;;;;;;5149355;27;20047;-67
2023/07/09 06:34:14;;;;;;;8.65;5.93;;;;;;;;;;5127866;27;20066;-67
2023/07/09 06:36:41;;;;;;;10.57;6.15;;;;;;;;;;5149392;27;20034;-67
2023/07/09 06:39:08;;;;;;;8.80;5.82;;;;;;;;;;5147186;27;20069;-67
2023/07/09 06:41:38;;;;;;;10.18;6.00;;;;;;;;;;5146974;27;20048;-67
2023/07/09 06:44:06;;;;;;;11.48;6.55;;;;;;;;;;5131094;27;20162;-67
2023/07/09 06:46:33;;;;;;;11.43;6.72;;;;;;;;;;5140176;27;20043;-67
2023/07/09 06:49:02;;;;;;;11.65;6.65;;;;;;;;;;5140456;27;20104;-67
2023/07/09 06:51:29;;;;;;;9.07;6.20;;;;;;;;;;5125812;27;20051;-67
2023/07/09 06:53:57;;;;;;;10.73;6.72;;;;;;;;;;5143885;27;20047;-68
2023/07/09 06:56:25;;;;;;;10.75;7.28;;;;;;;;;;5148756;27;20051;-68
2023/07/09 06:58:52;;;;;;;10.73;7.07;;;;;;;;;;5149047;27;20050;-67
2023/07/09 07:01:20;;;;;;;13.30;7.50;;;;;;;;;;5139974;27;20043;-68
2023/07/09 07:03:47;;;;;;;13.88;7.65;;;;;;;;;;5140637;27;20095;-67
2023/07/09 07:06:16;;;;;;;13.25;7.28;;;;;;;;;;5144556;27;20077;-67
2023/07/09 07:08:43;;;;;;;11.82;7.43;;;;;;;;;;5147850;27;20493;-67
2023/07/09 07:11:10;;;;;;;11.10;7.18;;;;;;;;;;5136147;27;20046;-67
2023/07/09 07:13:38;;;;;;;10.75;7.50;;;;;;;;;;5144415;27;20139;-68
2023/07/09 07:16:07;;;;;;;14.18;8.50;;;;;;;;;;5140572;27;20047;-67
2023/07/09 07:18:34;;;;;;;10.18;7.78;;;;;;;;;;5138125;27;20131;-67
2023/07/09 07:21:01;;;;;;;13.68;8.70;;;;;;;;;;5138961;27;20379;-67
2023/07/09 07:23:30;;;;;;;13.30;8.18;;;;;;;;;;5142750;27;20047;-67
2023/07/09 07:25:57;;;;;;;13.27;8.05;;;;;;;;;;5139695;27;20138;-67
2023/07/09 07:28:25;;;;;;;12.32;8.57;;;;;;;;;;5142600;27;20405;-67
2023/07/09 07:31:01;;;;;;;14.90;9.85;;;;;;;;;;5146786;27;20043;-67
2023/07/09 07:33:29;;;;;;;16.92;9.85;;;;;;;;;;5146180;27;20043;-67
2023/07/09 07:35:56;;;;;;;15.30;9.52;;;;;;;;;;5140911;27;20077;-67
2023/07/09 07:38:23;;;;;;;12.93;9.27;;;;;;;;;;5136768;27;20051;-67
2023/07/09 07:40:52;;;;;;;19.85;9.90;;;;;;;;;;5143067;27;20061;-67
2023/07/09 07:43:19;;;;;;;14.15;9.50;;;;;;;;;;5139448;27;20051;-67
2023/07/09 07:45:47;;;;;;;14.23;9.32;;;;;;;;;;5121254;27;20492;-67
2023/07/09 07:48:14;;;;;;;13.45;9.02;;;;;;;;;;5147584;27;20038;-68
2023/07/09 07:50:41;;;;;;;11.07;8.50;;;;;;;;;;5149387;27;20054;-67
2023/07/09 07:53:09;;;;;;;14.02;8.13;;;;;;;;;;5116226;27;20055;-67
2023/07/09 07:55:37;;;;;;;11.18;7.60;;;;;;;;;;5143520;27;20042;-67
2023/07/09 07:58:05;;;;;;;15.05;7.70;;;;;;;;;;5143203;27;20047;-67
2023/07/09 08:00:32;;;;;;;11.93;7.18;;;;;;;;;;5145779;27;20116;-67
2023/07/09 08:03:00;;;;;;;10.93;7.32;;;;;;;;;;5136023;27;20410;-67
2023/07/09 08:05:27;;;;;;;12.30;7.30;;;;;;;;;;5145444;27;20363;-68
2023/07/09 08:07:55;;;;;;;11.10;7.13;;;;;;;;;;5145610;27;20061;-68
2023/07/09 08:10:22;;;;;;;7.97;6.10;;;;;;;;;;5143499;27;20042;-68
2023/07/09 08:12:49;;;;;;;9.35;5.90;;;;;;;;;;5148539;27;20043;-68
2023/07/09 08:15:18;;;;;;;9.10;6.00;;;;;;;;;;5138571;27;20063;-67
2023/07/09 08:17:45;;;;;;;10.13;6.05;;;;;;;;;;5150119;27;20046;-67
2023/07/09 08:20:13;;;;;;;9.95;5.95;;;;;;;;;;5146768;27;20074;-68
2023/07/09 08:22:40;;;;;;;12.55;6.45;;;;;;;;;;5118398;27;20054;-67
2023/07/09 08:25:08;;;;;;;16.33;7.47;;;;;;;;;;5124918;27;20053;-68
2023/07/09 08:27:35;;;;;;;9.85;6.55;;;;;;;;;;5143912;27;20057;-68
2023/07/09 08:30:02;;;;;;;11.25;7.22;;;;;;;;;;5144984;27;20053;-67
2023/07/09 08:32:31;;;;;;;11.10;6.40;;;;;;;;;;5149429;27;20059;-68
2023/07/09 08:34:58;;;;;;;12.00;6.55;;;;;;;;;;5146997;27;20118;-67
2023/07/09 08:37:25;;;;;;;13.68;6.00;;;;;;;;;;5145051;27;20047;-67
2023/07/09 08:39:53;;;;;;;9.25;5.60;;;;;;;;;;5136237;27;20038;-67
2023/07/09 08:42:27;;;;;;;9.73;6.13;;;;;;;;;;5142449;27;20043;-68
2023/07/09 08:45:02;;;;;;;8.20;4.38;;;;;;;;;;5143317;27;20042;-67
2023/07/09 08:47:35;;;;;;;8.45;4.60;;;;;;;;;;5139587;27;20449;-68
2023/07/09 08:50:04;;;;;;;6.85;4.50;;;;;;;;;;5142433;27;20051;-68
2023/07/09 08:52:35;;;;;;;7.38;4.22;;;;;;;;;;5132660;27;20054;-67
2023/07/09 08:55:05;;;;;;;7.50;4.05;;;;;;;;;;5138438;27;20133;-67
2023/07/09 08:57:35;;;;;;;8.70;4.35;;;;;;;;;;5135369;27;20115;-67
2023/07/09 09:00:07;;;;;;;5.90;3.75;;;;;;;;;;5128126;27;20118;-67
2023/07/09 09:02:38;;;;;;;5.80;3.72;;;;;;;;;;5146324;27;20100;-68
2023/07/09 09:05:06;;;;;;;5.97;3.60;;;;;;;;;;5143511;27;20061;-68
2023/07/09 09:07:39;;;;;;;8.05;3.97;;;;;;;;;;5130252;27;20082;-67
2023/07/09 09:10:07;;;;;;;10.93;4.55;;;;;;;;;;5138846;27;20042;-67
2023/07/09 09:12:38;;;;;;;6.78;3.30;;;;;;;;;;5147465;27;20075;-67
2023/07/09 09:15:10;;;;;;;6.55;3.72;;;;;;;;;;5142247;27;20099;-67
2023/07/09 09:17:39;;;;;;;8.23;4.30;;;;;;;;;;5148056;27;20311;-67
2023/07/09 09:20:09;;;;;;;6.32;3.50;;;;;;;;;;5139463;27;20709;-67
2023/07/09 09:22:42;;;;;;;5.60;3.40;;;;;;;;;;5138634;27;20422;-67
2023/07/09 09:25:17;;;;;;;5.65;3.67;;;;;;;;;;5119749;27;20065;-67
2023/07/09 09:27:45;;;;;;;7.15;3.53;;;;;;;;;;5145130;27;20481;-67
2023/07/09 09:30:13;;;;;;;6.88;4.13;;;;;;;;;;5145477;27;20053;-67
2023/07/09 09:32:44;;;;;;;6.63;3.40;;;;;;;;;;5146896;27;20570;-67
2023/07/09 09:35:15;;;;;;;7.35;3.22;;;;;;;;;;5147947;27;20073;-67
2023/07/09 09:37:45;;;;;;;5.00;3.38;;;;;;;;;;5147244;27;20042;-67
2023/07/09 09:40:13;;;;;;;5.80;3.30;;;;;;;;;;5144081;27;20039;-67
2023/07/09 09:42:42;;;;;;;5.78;3.30;;;;;;;;;;5142994;27;20046;-67
2023/07/09 09:45:12;;;;;;;5.70;3.22;;;;;;;;;;5125858;27;20082;-67
2023/07/09 09:47:40;;;;;;;8.63;3.70;;;;;;;;;;5143225;27;20050;-67
2023/07/09 09:50:11;;;;;;;6.47;2.83;;;;;;;;;;5136191;27;20035;-67
2023/07/09 09:52:39;;;;;;;7.15;2.95;;;;;;;;;;5137598;27;20057;-67
2023/07/09 09:55:12;;;;;;;4.38;2.88;;;;;;;;;;5141469;27;20566;-67
2023/07/09 09:57:39;;;;;;;3.70;2.85;;;;;;;;;;5146181;27;21086;-67
2023/07/09 10:00:07;;;;;;;5.25;2.92;;;;;;;;;;5138928;27;20055;-67
2023/07/09 10:02:41;;;;;;;7.63;3.00;;;;;;;;;;5124453;27;20130;-67
2023/07/09 10:05:12;;;;;;;5.25;2.70;;;;;;;;;;5140691;27;20062;-67
2023/07/09 10:07:42;;;;;;;7.63;3.00;;;;;;;;;;5138775;27;20061;-67
2023/07/09 10:10:14;;;;;;;3.70;2.72;;;;;;;;;;5137164;27;20059;-67
2023/07/09 10:12:45;;;;;;;5.72;3.20;;;;;;;;;;5143961;27;20099;-67
2023/07/09 10:15:26;;;;;;;6.32;2.78;;;;;;;;;;5137362;27;20130;-67
2023/07/09 10:17:55;;;;;;;5.60;3.15;;;;;;;;;;5138777;27;20043;-67
2023/07/09 10:20:26;;;;;;;5.43;2.83;;;;;;;;;;5143405;27;20039;-67
2023/07/09 10:22:56;;;;;;;5.22;2.80;;;;;;;;;;5129958;27;20090;-67
2023/07/09 10:25:39;;;;;;;4.55;2.70;;;;;;;;;;5142734;27;20046;-68
2023/07/09 10:28:14;;;;;;;6.10;3.50;;;;;;;;;;5139020;27;20043;-67
2023/07/09 10:30:44;;;;;;;6.65;2.72;;;;;;;;;;5145376;27;20047;-67
2023/07/09 10:33:13;;;;;;;5.20;2.95;;;;;;;;;;5129045;27;20062;-67
2023/07/09 10:35:47;;;;;;;4.45;2.60;;;;;;;;;;5135429;27;20374;-68
2023/07/09 10:38:33;;;;;;;3.95;2.80;;;;;;;;;;5148497;27;20135;-68
2023/07/09 10:41:03;;;;;;;6.03;3.03;;;;;;;;;;5147248;27;21076;-67
2023/07/09 10:43:35;;;;;;;7.45;3.50;;;;;;;;;;5129348;27;20130;-68
2023/07/09 10:46:04;;;;;;;4.53;3.35;;;;;;;;;;5140642;27;20355;-67
2023/07/09 10:48:35;;;;;;;6.78;3.38;;;;;;;;;;5137990;27;20528;-67
2023/07/09 10:51:04;;;;;;;5.07;2.67;;;;;;;;;;5143145;27;20477;-67
2023/07/09 10:53:35;;;;;;;8.00;3.45;;;;;;;;;;5145441;27;20047;-67
2023/07/09 10:56:04;;;;;;;5.43;3.25;;;;;;;;;;5144979;27;20489;-67
2023/07/09 10:58:34;;;;;;;6.13;2.63;;;;;;;;;;5142526;27;20357;-67
2023/07/09 11:01:02;;;;;;;8.18;3.47;;;;;;;;;;5142124;27;20534;-68
2023/07/09 11:03:35;;;;;;;6.72;3.45;;;;;;;;;;5138773;27;20397;-67
2023/07/09 11:06:04;;;;;;;5.07;3.03;;;;;;;;;;5146009;27;20058;-68
2023/07/09 11:08:36;;;;;;;3.22;2.25;;;;;;;;;;5139389;27;20342;-68
2023/07/09 11:11:05;;;;;;;4.78;3.00;;;;;;;;;;5147693;27;20125;-68
2023/07/09 11:13:36;;;;;;;5.28;2.88;;;;;;;;;;5149416;27;20405;-67
2023/07/09 11:16:04;;;;;;;4.13;2.63;;;;;;;;;;5129376;27;20399;-68
2023/07/09 11:18:33;;;;;;;5.75;3.00;;;;;;;;;;5148302;27;20049;-67
2023/07/09 11:21:01;;;;;;;5.35;3.00;;;;;;;;;;5139368;27;20081;-65
2023/07/09 11:23:39;;;;;;;5.30;3.03;;;;;;;;;;5123320;27;20055;-65
2023/07/09 11:26:12;;;;;;;5.32;3.10;;;;;;;;;;5145639;27;20053;-66
2023/07/09 11:28:40;;;;;;;5.55;3.05;;;;;;;;;;5127599;27;20042;-66
2023/07/09 11:31:09;;;;;;;5.07;2.90;;;;;;;;;;5148978;27;20055;-65
2023/07/09 11:33:45;;;;;;;3.72;2.80;;;;;;;;;;5146477;27;20494;-65
2023/07/09 11:36:15;;;;;;;4.05;2.72;;;;;;;;;;5143653;27;20058;-66
2023/07/09 11:38:46;;;;;;;4.50;2.83;;;;;;;;;;5141618;27;20039;-66
2023/07/09 11:41:29;;;;;;;4.10;2.97;;;;;;;;;;5141901;27;20343;-66
2023/07/09 11:44:04;;;;;;;4.18;2.83;;;;;;;;;;5140666;27;20046;-66
2023/07/09 11:46:33;;;;;;;4.13;2.90;;;;;;;;;;5139791;27;20057;-66
2023/07/09 11:49:01;;;;;;;4.72;2.70;;;;;;;;;;5147118;27;20481;-65
2023/07/09 11:51:34;;;;;;;4.72;2.50;;;;;;;;;;5147365;27;20481;-66
2023/07/09 11:54:03;;;;;;;5.60;2.92;;;;;;;;;;5147510;27;20126;-66
2023/07/09 11:56:31;;;;;;;4.38;3.00;;;;;;;;;;5140610;27;20083;-66
2023/07/09 11:58:59;;;;;;;3.85;2.50;;;;;;;;;;5142866;27;20046;-66
2023/07/09 12:01:29;;;;;;;5.10;2.83;;;;;;;;;;5143029;27;20049;-66
2023/07/09 12:03:58;;;;;;;3.88;2.70;;;;;;;;;;5145078;27;20053;-66
2023/07/09 12:06:28;;;;;;;4.05;2.83;;;;;;;;;;5139535;27;20154;-65
2023/07/09 12:08:56;;;;;;;5.20;2.95;;;;;;;;;;5138788;27;20074;-66
2023/07/09 12:11:25;;;;;;;3.35;2.88;;;;;;;;;;5150347;27;20481;-65
2023/07/09 12:13:53;;;;;;;4.18;2.83;;;;;;;;;;5141139;27;20439;-66
2023/07/09 12:16:21;;;;;;;3.58;2.63;;;;;;;;;;5132173;27;20038;-65
2023/07/09 12:18:49;;;;;;;4.32;2.80;;;;;;;;;;5143148;27;20047;-66
2023/07/09 12:21:16;;;;;;;3.50;2.72;;;;;;;;;;5123709;27;20209;-65
2023/07/09 12:23:43;;;;;;;5.47;2.90;;;;;;;;;;5142394;27;20126;-66
2023/07/09 12:26:13;;;;;;;6.00;3.15;;;;;;;;;;5142318;27;20041;-66
2023/07/09 12:28:42;;;;;;;5.15;2.58;;;;;;;;;;5145694;27;20061;-66
2023/07/09 12:31:14;;;;;;;3.53;2.40;;;;;;;;;;5142707;27;20501;-66
2023/07/09 12:33:48;;;;;;;4.25;2.72;;;;;;;;;;5146875;27;20047;-66
2023/07/09 12:36:16;;;;;;;3.40;2.83;;;;;;;;;;5144955;27;20072;-65
2023/07/09 12:38:44;;;;;;;7.20;2.65;;;;;;;;;;5145819;27;20489;-65
2023/07/09 12:41:18;;;;;;;3.05;2.58;;;;;;;;;;5147157;27;20487;-65
2023/07/09 12:43:47;;;;;;;4.32;2.70;;;;;;;;;;5142872;27;20955;-65
2023/07/09 12:46:14;;;;;;;7.15;2.75;;;;;;;;;;5143684;27;20104;-65
2023/07/09 12:48:41;;;;;;;4.32;3.38;;;;;;;;;;5139197;27;20504;-65
2023/07/09 12:51:10;;;;;;;3.67;2.40;;;;;;;;;;5142536;27;20050;-65
2023/07/09 12:53:38;;;;;;;5.03;3.20;;;;;;;;;;5140999;27;20047;-65
2023/07/09 12:56:13;;;;;;;2.92;2.33;;;;;;;;;;5141331;27;20044;-65
2023/07/09 12:58:40;;;;;;;5.28;2.63;;;;;;;;;;5123750;27;20057;-65
2023/07/09 13:01:16;;;;;;;6.38;3.10;;;;;;;;;;5142446;27;20061;-65
2023/07/09 13:03:43;;;;;;;5.55;3.25;;;;;;;;;;5145065;27;20454;-64
2023/07/09 13:06:27;;;;;;;4.03;3.00;;;;;;;;;;5141457;27;20059;-65
2023/07/09 13:08:57;;;;;;;4.63;3.10;;;;;;;;;;5135130;27;20828;-66
2023/07/09 13:11:25;;;;;;;5.75;3.80;;;;;;;;;;5132588;27;20130;-65
2023/07/09 13:13:56;;;;;;;5.95;3.38;;;;;;;;;;5135696;27;20389;-65
2023/07/09 13:16:25;;;;;;;4.50;3.50;;;;;;;;;;5140532;27;20043;-65
2023/07/09 13:18:52;;;;;;;5.72;3.58;;;;;;;;;;5146033;27;21107;-65
2023/07/09 13:21:20;;;;;;;5.53;3.13;;;;;;;;;;5148753;27;20485;-65
2023/07/09 13:23:48;;;;;;;3.80;2.80;;;;;;;;;;5126138;27;20043;-65
2023/07/09 13:26:16;;;;;;;5.65;3.15;;;;;;;;;;5123358;27;20098;-65
2023/07/09 13:28:45;;;;;;;4.85;3.60;;;;;;;;;;5145403;27;20051;-65
2023/07/09 13:31:14;;;;;;;7.25;2.92;;;;;;;;;;5144171;27;20056;-65
2023/07/09 13:33:44;;;;;;;4.55;3.38;;;;;;;;;;5142456;27;20051;-65
2023/07/09 13:36:11;;;;;;;5.93;3.50;;;;;;;;;;5144269;27;20047;-65
2023/07/09 13:38:38;;;;;;;6.28;3.40;;;;;;;;;;5125142;27;20062;-65
2023/07/09 13:41:12;;;;;;;5.43;3.33;;;;;;;;;;5146320;27;20050;-65
2023/07/09 13:43:40;;;;;;;4.30;3.20;;;;;;;;;;5124726;27;20098;-65
2023/07/09 13:46:09;;;;;;;6.10;3.72;;;;;;;;;;5137918;27;20263;-65
2023/07/09 13:48:37;;;;;;;5.75;3.28;;;;;;;;;;5142701;27;20211;-65
2023/07/09 13:51:14;;;;;;;4.20;2.92;;;;;;;;;;5143477;27;20121;-66
2023/07/09 13:53:42;;;;;;;4.18;3.15;;;;;;;;;;5121177;27;20049;-65
2023/07/09 13:56:09;;;;;;;6.40;3.70;;;;;;;;;;5144225;27;20134;-66
2023/07/09 13:58:36;;;;;;;5.35;3.22;;;;;;;;;;5141053;27;20050;-66
2023/07/09 14:01:11;;;;;;;3.35;2.88;;;;;;;;;;5149366;27;20041;-66
2023/07/09 14:03:38;;;;;;;4.55;2.70;;;;;;;;;;5150907;27;20039;-66
2023/07/09 14:06:06;;;;;;;5.20;2.95;;;;;;;;;;5146846;27;20058;-66
2023/07/09 14:08:34;;;;;;;3.72;2.83;;;;;;;;;;5149344;27;20042;-66
2023/07/09 14:11:02;;;;;;;4.43;2.88;;;;;;;;;;5146371;27;20034;-66
2023/07/09 14:13:31;;;;;;;4.28;2.67;;;;;;;;;;5150606;27;20046;-65
2023/07/09 14:15:59;;;;;;;3.65;2.47;;;;;;;;;;5148356;27;20068;-65
2023/07/09 14:18:26;;;;;;;2.55;2.08;;;;;;;;;;5137432;27;20057;-65
2023/07/09 14:20:53;;;;;;;3.83;2.42;;;;;;;;;;5142616;27;20051;-66
2023/07/09 14:23:21;;;;;;;3.28;2.30;;;;;;;;;;5122466;27;20062;-66
2023/07/09 14:25:49;;;;;;;5.30;2.30;;;;;;;;;;5149959;27;20039;-65
2023/07/09 14:28:18;;;;;;;4.35;1.85;;;;;;;;;;5144748;27;20062;-66
2023/07/09 14:30:46;;;;;;;3.85;2.47;;;;;;;;;;5150520;27;20057;-65
2023/07/09 14:33:15;;;;;;;3.92;2.42;;;;;;;;;;5149577;27;20469;-65
2023/07/09 14:35:43;;;;;;;3.78;2.40;;;;;;;;;;5141553;27;20119;-65
2023/07/09 14:38:16;;;;;;;5.97;2.30;;;;;;;;;;5149540;27;20486;-65
2023/07/09 14:40:43;;;;;;;6.60;2.45;;;;;;;;;;5152690;27;20512;-65
2023/07/09 14:43:13;;;;;;;5.30;2.67;;;;;;;;;;5145051;27;20497;-63
2023/07/09 14:45:40;;;;;;;4.57;2.03;;;;;;;;;;5135399;27;20047;-64
2023/07/09 14:48:12;;;;;;;7.38;2.47;;;;;;;;;;5149733;27;20538;-63
2023/07/09 14:50:39;;;;;;;7.63;2.47;;;;;;;;;;5148801;27;20046;-62